Time;durP1;ratioP1;P1;durP2;ratioP2;P2;SDS_P1;SDS_P2;PMS_P1;PMS_P2;Temp;Humidity;BMP_temperature;BMP_pressure;BME280_temperature;BME280_humidity;BME280_pressure;Samples;Min_cycle;Max_cycle;Signal;HPM_P1;HPM_P2
2022/09/10 00:01:24;;;;;;;2.30;2.00;;;;;;;;;;5072685;28;20234;-48
2022/09/10 00:03:50;;;;;;;3.13;2.00;;;;;;;;;;5073962;28;20203;-48
2022/09/10 00:06:17;;;;;;;4.30;1.90;;;;;;;;;;5074281;28;20298;-48
2022/09/10 00:08:45;;;;;;;2.10;1.90;;;;;;;;;;5070947;28;20235;-48
2022/09/10 00:11:11;;;;;;;3.33;1.90;;;;;;;;;;5072288;28;20673;-47
2022/09/10 00:13:38;;;;;;;4.70;1.93;;;;;;;;;;5072120;28;20211;-47
2022/09/10 00:16:05;;;;;;;4.63;2.00;;;;;;;;;;5072439;28;20302;-48
2022/09/10 00:18:33;;;;;;;1.90;1.70;;;;;;;;;;5073845;28;20192;-48
2022/09/10 00:21:02;;;;;;;2.90;1.80;;;;;;;;;;5074233;28;20227;-48
2022/09/10 00:23:28;;;;;;;1.47;1.37;;;;;;;;;;5074145;28;20199;-48
2022/09/10 00:25:56;;;;;;;2.17;1.70;;;;;;;;;;5074262;28;20257;-48
2022/09/10 00:28:23;;;;;;;2.47;1.90;;;;;;;;;;5074035;28;20277;-49
2022/09/10 00:30:50;;;;;;;3.53;1.70;;;;;;;;;;5074092;28;20199;-47
2022/09/10 00:33:17;;;;;;;2.53;1.47;;;;;;;;;;5074085;28;20569;-48
2022/09/10 00:35:44;;;;;;;3.17;1.87;;;;;;;;;;5073883;28;20195;-48
2022/09/10 00:38:10;;;;;;;2.77;2.00;;;;;;;;;;5074027;28;20198;-48
2022/09/10 00:40:37;;;;;;;2.87;1.63;;;;;;;;;;5073831;28;20196;-48
2022/09/10 00:43:05;;;;;;;3.03;1.90;;;;;;;;;;5073640;28;20642;-48
2022/09/10 00:45:33;;;;;;;3.27;1.63;;;;;;;;;;5073954;28;20264;-48
2022/09/10 00:48:01;;;;;;;2.83;1.67;;;;;;;;;;5073367;28;20206;-48
2022/09/10 00:50:29;;;;;;;2.67;1.50;;;;;;;;;;5073344;28;20284;-47
2022/09/10 00:52:56;;;;;;;6.33;1.77;;;;;;;;;;5072434;28;20203;-48
2022/09/10 00:55:22;;;;;;;2.00;1.80;;;;;;;;;;5073696;28;20634;-48
2022/09/10 00:57:50;;;;;;;5.47;2.37;;;;;;;;;;5073510;28;20199;-48
2022/09/10 01:00:18;;;;;;;2.60;1.87;;;;;;;;;;5073293;28;20261;-48
2022/09/10 01:02:44;;;;;;;2.83;2.00;;;;;;;;;;5073624;28;20290;-48
2022/09/10 01:05:10;;;;;;;3.37;1.70;;;;;;;;;;5073602;28;20196;-47
2022/09/10 01:07:36;;;;;;;3.93;1.87;;;;;;;;;;5073459;28;20219;-48
2022/09/10 01:10:04;;;;;;;3.50;2.43;;;;;;;;;;5073111;28;20270;-48
2022/09/10 01:12:45;;;;;;;5.73;2.30;;;;;;;;;;5073269;28;20677;-48
2022/09/10 01:15:17;;;;;;;4.30;2.00;;;;;;;;;;5073210;28;20234;-48
2022/09/10 01:17:52;;;;;;;3.23;2.23;;;;;;;;;;5073115;28;20222;-47
2022/09/10 01:20:27;;;;;;;2.37;1.60;;;;;;;;;;5073218;28;20677;-46
2022/09/10 01:23:03;;;;;;;2.83;2.00;;;;;;;;;;5073076;28;20583;-47
2022/09/10 01:25:37;;;;;;;3.23;1.70;;;;;;;;;;5073328;28;20198;-47
2022/09/10 01:28:06;;;;;;;2.10;1.90;;;;;;;;;;5073027;28;20205;-46
2022/09/10 01:30:36;;;;;;;3.10;1.97;;;;;;;;;;5073101;28;20224;-46
2022/09/10 01:33:08;;;;;;;2.47;2.07;;;;;;;;;;5073000;28;20208;-47
2022/09/10 01:35:36;;;;;;;2.47;2.23;;;;;;;;;;5072887;28;20199;-46
2022/09/10 01:38:04;;;;;;;3.47;1.90;;;;;;;;;;5073018;28;20199;-46
2022/09/10 01:40:30;;;;;;;2.93;2.10;;;;;;;;;;5072219;28;20191;-47
2022/09/10 01:42:59;;;;;;;2.27;1.80;;;;;;;;;;5072572;28;20206;-46
2022/09/10 01:45:28;;;;;;;2.80;2.23;;;;;;;;;;5072895;28;20290;-46
2022/09/10 01:48:05;;;;;;;2.13;1.93;;;;;;;;;;5072670;28;20204;-46
2022/09/10 01:50:33;;;;;;;3.07;2.03;;;;;;;;;;5072595;28;20226;-47
2022/09/10 01:53:07;;;;;;;2.17;1.90;;;;;;;;;;5072549;28;20191;-47
2022/09/10 01:55:40;;;;;;;3.80;2.33;;;;;;;;;;5072467;28;20213;-46
2022/09/10 01:58:12;;;;;;;2.60;2.23;;;;;;;;;;5072200;28;20280;-47
2022/09/10 02:00:42;;;;;;;2.87;1.90;;;;;;;;;;5072258;28;20312;-47
2022/09/10 02:03:11;;;;;;;2.47;2.20;;;;;;;;;;5072070;28;20235;-47
2022/09/10 02:05:39;;;;;;;3.07;2.00;;;;;;;;;;5071644;28;20249;-47
2022/09/10 02:08:08;;;;;;;2.23;1.97;;;;;;;;;;5072088;28;20672;-47
2022/09/10 02:10:34;;;;;;;2.80;1.97;;;;;;;;;;5072144;28;20725;-46
2022/09/10 02:13:01;;;;;;;2.83;1.90;;;;;;;;;;5072273;28;20202;-47
2022/09/10 02:15:28;;;;;;;2.67;2.20;;;;;;;;;;5072117;28;20196;-46
2022/09/10 02:17:55;;;;;;;2.60;1.87;;;;;;;;;;5072194;28;20210;-47
2022/09/10 02:20:21;;;;;;;3.33;2.20;;;;;;;;;;5071717;28;20625;-48
2022/09/10 02:22:49;;;;;;;4.37;2.10;;;;;;;;;;5071186;28;20200;-47
2022/09/10 02:25:15;;;;;;;4.10;2.10;;;;;;;;;;5071737;28;20271;-47
2022/09/10 02:27:42;;;;;;;2.10;1.90;;;;;;;;;;5071675;28;20278;-47
2022/09/10 02:30:10;;;;;;;5.93;2.43;;;;;;;;;;5071815;28;20233;-46
2022/09/10 02:32:36;;;;;;;2.97;2.13;;;;;;;;;;5071681;28;20204;-46
2022/09/10 02:35:03;;;;;;;3.50;2.23;;;;;;;;;;5071863;28;20608;-47
2022/09/10 02:37:29;;;;;;;7.40;2.57;;;;;;;;;;5071666;28;20210;-46
2022/09/10 02:39:55;;;;;;;3.77;2.40;;;;;;;;;;5071770;28;20195;-47
2022/09/10 02:42:22;;;;;;;2.23;2.00;;;;;;;;;;5071583;28;20195;-46
2022/09/10 02:44:48;;;;;;;4.20;2.30;;;;;;;;;;5071517;28;20200;-46
2022/09/10 02:47:14;;;;;;;2.37;2.17;;;;;;;;;;5071559;28;20203;-46
2022/09/10 02:49:40;;;;;;;2.63;1.97;;;;;;;;;;5071502;28;20226;-46
2022/09/10 02:52:08;;;;;;;3.33;2.00;;;;;;;;;;5071068;28;20200;-46
2022/09/10 02:54:34;;;;;;;3.83;2.10;;;;;;;;;;5071192;28;20199;-46
2022/09/10 02:57:00;;;;;;;2.53;2.33;;;;;;;;;;5071439;28;20199;-46
2022/09/10 02:59:26;;;;;;;3.30;2.50;;;;;;;;;;5071014;28;20192;-46
2022/09/10 03:01:53;;;;;;;4.47;2.63;;;;;;;;;;5071366;28;20198;-46
2022/09/10 03:04:19;;;;;;;3.47;2.40;;;;;;;;;;5071163;28;20797;-46
2022/09/10 03:06:48;;;;;;;2.80;2.40;;;;;;;;;;5071102;28;20199;-46
2022/09/10 03:09:15;;;;;;;2.73;2.53;;;;;;;;;;5070961;28;20227;-46
2022/09/10 03:11:41;;;;;;;2.57;2.30;;;;;;;;;;5071062;28;20215;-47
2022/09/10 03:14:09;;;;;;;3.60;2.40;;;;;;;;;;5071105;28;20574;-47
2022/09/10 03:16:35;;;;;;;4.17;3.00;;;;;;;;;;5071012;28;20199;-46
2022/09/10 03:19:01;;;;;;;5.37;3.17;;;;;;;;;;5071110;28;20196;-46
2022/09/10 03:21:27;;;;;;;3.03;2.70;;;;;;;;;;5071143;28;20199;-46
2022/09/10 03:23:54;;;;;;;3.17;2.83;;;;;;;;;;5071035;28;20199;-46
2022/09/10 03:26:24;;;;;;;4.77;3.40;;;;;;;;;;5071219;28;20632;-46
2022/09/10 03:28:50;;;;;;;4.90;3.07;;;;;;;;;;5070953;28;20233;-47
2022/09/10 03:31:17;;;;;;;3.53;3.17;;;;;;;;;;5070951;28;20195;-46
2022/09/10 03:33:43;;;;;;;5.53;3.43;;;;;;;;;;5069393;28;20669;-47
2022/09/10 03:36:09;;;;;;;3.97;3.47;;;;;;;;;;5070844;28;20241;-46
2022/09/10 03:38:35;;;;;;;3.90;3.33;;;;;;;;;;5070649;28;20195;-45
2022/09/10 03:41:01;;;;;;;5.00;3.10;;;;;;;;;;5070381;28;20202;-46
2022/09/10 03:43:29;;;;;;;6.50;3.73;;;;;;;;;;5070932;28;20199;-47
2022/09/10 03:45:55;;;;;;;3.43;3.13;;;;;;;;;;5070588;28;20206;-46
2022/09/10 03:48:21;;;;;;;6.60;3.70;;;;;;;;;;5070777;28;20199;-47
2022/09/10 03:50:49;;;;;;;3.37;3.07;;;;;;;;;;5070583;28;20203;-47
2022/09/10 03:53:16;;;;;;;4.93;3.20;;;;;;;;;;5070185;28;20211;-47
2022/09/10 03:55:43;;;;;;;4.00;3.60;;;;;;;;;;5069890;28;20261;-46
2022/09/10 03:58:09;;;;;;;3.50;3.03;;;;;;;;;;5069694;28;20295;-46
2022/09/10 04:00:36;;;;;;;4.20;3.10;;;;;;;;;;5070333;28;20318;-46
2022/09/10 04:03:04;;;;;;;3.70;3.03;;;;;;;;;;5070259;28;20203;-46
2022/09/10 04:05:31;;;;;;;2.80;2.47;;;;;;;;;;5070468;28;20666;-46
2022/09/10 04:07:57;;;;;;;4.40;3.33;;;;;;;;;;5069540;28;20230;-45
2022/09/10 04:10:23;;;;;;;3.00;2.70;;;;;;;;;;5070445;28;20572;-46
2022/09/10 04:12:51;;;;;;;3.67;2.60;;;;;;;;;;5070579;28;20603;-46
2022/09/10 04:15:17;;;;;;;5.83;2.70;;;;;;;;;;5070515;28;20204;-46
2022/09/10 04:17:45;;;;;;;3.33;2.80;;;;;;;;;;5069856;28;20718;-47
2022/09/10 04:20:11;;;;;;;2.87;2.67;;;;;;;;;;5070571;28;20654;-46
2022/09/10 04:22:38;;;;;;;4.13;2.93;;;;;;;;;;5070493;28;20215;-46
2022/09/10 04:25:04;;;;;;;5.17;3.13;;;;;;;;;;5070246;28;20223;-46
2022/09/10 04:27:30;;;;;;;4.17;3.20;;;;;;;;;;5070316;28;20203;-47
2022/09/10 04:29:57;;;;;;;3.83;3.40;;;;;;;;;;5070167;28;20227;-47
2022/09/10 04:32:23;;;;;;;4.70;3.20;;;;;;;;;;5070275;28;20227;-47
2022/09/10 04:34:50;;;;;;;3.10;2.80;;;;;;;;;;5070063;28;20219;-47
2022/09/10 04:37:17;;;;;;;4.73;3.23;;;;;;;;;;5069828;28;20693;-47
2022/09/10 04:39:43;;;;;;;6.13;3.40;;;;;;;;;;5070214;28;20204;-46
2022/09/10 04:42:11;;;;;;;4.13;3.07;;;;;;;;;;5069707;28;20257;-47
2022/09/10 04:44:37;;;;;;;5.17;3.37;;;;;;;;;;5070097;28;20199;-47
2022/09/10 04:47:03;;;;;;;6.27;3.67;;;;;;;;;;5073735;28;20690;-47
2022/09/10 04:49:28;;;;;;;4.27;3.87;;;;;;;;;;5073587;28;20258;-47
2022/09/10 04:51:56;;;;;;;4.47;3.23;;;;;;;;;;5073693;28;20287;-47
2022/09/10 04:54:22;;;;;;;4.87;4.23;;;;;;;;;;5073654;28;20195;-47
2022/09/10 04:56:50;;;;;;;6.30;3.93;;;;;;;;;;5073251;28;20203;-47
2022/09/10 04:59:16;;;;;;;4.93;4.27;;;;;;;;;;5073649;28;20677;-47
2022/09/10 05:01:42;;;;;;;9.37;4.17;;;;;;;;;;5073676;28;20203;-47
2022/09/10 05:04:07;;;;;;;4.67;4.27;;;;;;;;;;5073448;28;20203;-46
2022/09/10 05:06:33;;;;;;;4.67;4.33;;;;;;;;;;5072925;28;20289;-47
2022/09/10 05:09:01;;;;;;;5.60;4.53;;;;;;;;;;5072303;28;20292;-46
2022/09/10 05:11:27;;;;;;;5.47;4.10;;;;;;;;;;5072945;28;20681;-46
2022/09/10 05:13:53;;;;;;;4.83;4.30;;;;;;;;;;5073477;28;20219;-46
2022/09/10 05:16:20;;;;;;;4.20;3.80;;;;;;;;;;5073456;28;20203;-46
2022/09/10 05:18:46;;;;;;;4.33;3.90;;;;;;;;;;5073174;28;20199;-47
2022/09/10 05:21:12;;;;;;;6.20;4.83;;;;;;;;;;5072785;28;20199;-46
2022/09/10 05:23:38;;;;;;;5.07;4.43;;;;;;;;;;5073128;28;20207;-46
2022/09/10 05:26:05;;;;;;;5.67;4.70;;;;;;;;;;5072866;28;20641;-47
2022/09/10 05:28:31;;;;;;;6.17;4.53;;;;;;;;;;5072042;28;20214;-47
2022/09/10 05:30:57;;;;;;;6.40;4.67;;;;;;;;;;5072378;28;20773;-47
2022/09/10 05:33:23;;;;;;;5.83;4.37;;;;;;;;;;5072717;28;20196;-46
2022/09/10 05:35:50;;;;;;;6.83;4.77;;;;;;;;;;5072521;28;20246;-47
2022/09/10 05:38:16;;;;;;;5.47;4.97;;;;;;;;;;5072637;28;20269;-46
2022/09/10 05:40:42;;;;;;;4.77;4.20;;;;;;;;;;5072895;28;20196;-47
2022/09/10 05:43:11;;;;;;;5.50;4.60;;;;;;;;;;5072692;28;20203;-47
2022/09/10 05:45:37;;;;;;;7.83;5.53;;;;;;;;;;5072864;28;20269;-46
2022/09/10 05:48:03;;;;;;;6.50;5.07;;;;;;;;;;5072814;28;20616;-47
2022/09/10 05:50:30;;;;;;;7.83;5.70;;;;;;;;;;5072567;28;20230;-47
2022/09/10 05:52:56;;;;;;;6.47;5.23;;;;;;;;;;5072397;28;20206;-46
2022/09/10 05:55:22;;;;;;;6.03;4.83;;;;;;;;;;5072785;28;20203;-47
2022/09/10 05:57:48;;;;;;;7.33;5.40;;;;;;;;;;5070739;28;21125;-52
2022/09/10 06:00:16;;;;;;;6.63;6.03;;;;;;;;;;5072178;28;20231;-47
2022/09/10 06:02:44;;;;;;;6.73;5.37;;;;;;;;;;5071941;28;20249;-47
2022/09/10 06:05:10;;;;;;;7.10;6.27;;;;;;;;;;5072477;28;20200;-46
2022/09/10 06:07:36;;;;;;;6.57;5.97;;;;;;;;;;5071935;28;20306;-47
2022/09/10 06:10:02;;;;;;;6.57;5.97;;;;;;;;;;5072190;28;20227;-47
2022/09/10 06:12:28;;;;;;;7.20;5.97;;;;;;;;;;5072198;28;20555;-46
2022/09/10 06:14:54;;;;;;;6.43;5.83;;;;;;;;;;5070849;28;20248;-46
2022/09/10 06:17:21;;;;;;;6.67;5.27;;;;;;;;;;5072552;28;20628;-47
2022/09/10 06:19:47;;;;;;;6.47;4.93;;;;;;;;;;5072436;28;20208;-46
2022/09/10 06:22:13;;;;;;;7.13;5.27;;;;;;;;;;5072448;28;20200;-46
2022/09/10 06:24:39;;;;;;;6.17;5.27;;;;;;;;;;5072109;28;20253;-46
2022/09/10 06:27:06;;;;;;;6.10;5.50;;;;;;;;;;5071076;28;20242;-46
2022/09/10 06:29:32;;;;;;;5.50;5.00;;;;;;;;;;5071970;28;20227;-46
2022/09/10 06:31:58;;;;;;;6.07;4.70;;;;;;;;;;5071454;28;20203;-46
2022/09/10 06:34:25;;;;;;;6.27;5.67;;;;;;;;;;5071672;28;20206;-46
2022/09/10 06:36:51;;;;;;;5.80;5.17;;;;;;;;;;5071629;28;20542;-47
2022/09/10 06:39:17;;;;;;;5.80;5.27;;;;;;;;;;5071456;28;20271;-46
2022/09/10 06:41:43;;;;;;;6.50;5.50;;;;;;;;;;5071470;28;20647;-46
2022/09/10 06:44:09;;;;;;;5.63;5.10;;;;;;;;;;5071345;28;20203;-46
2022/09/10 06:46:36;;;;;;;6.93;4.23;;;;;;;;;;5071417;28;20674;-45
2022/09/10 06:49:03;;;;;;;6.93;4.80;;;;;;;;;;5070796;28;20223;-46
2022/09/10 06:51:31;;;;;;;5.27;4.77;;;;;;;;;;5071386;28;20204;-46
2022/09/10 06:53:57;;;;;;;8.60;5.23;;;;;;;;;;5071571;28;20294;-46
2022/09/10 06:56:23;;;;;;;5.57;4.20;;;;;;;;;;5071592;28;20309;-46
2022/09/10 06:58:49;;;;;;;5.23;4.33;;;;;;;;;;5071056;28;20234;-46
2022/09/10 07:01:16;;;;;;;5.33;4.07;;;;;;;;;;5070100;28;20239;-46
2022/09/10 07:03:42;;;;;;;5.83;4.53;;;;;;;;;;5070918;28;20692;-45
2022/09/10 07:06:09;;;;;;;4.90;4.33;;;;;;;;;;5071532;28;20239;-46
2022/09/10 07:08:38;;;;;;;5.87;4.60;;;;;;;;;;5070772;28;20215;-46
2022/09/10 07:11:05;;;;;;;5.83;4.33;;;;;;;;;;5070668;28;20309;-47
2022/09/10 07:13:31;;;;;;;5.47;4.13;;;;;;;;;;5070476;28;20295;-46
2022/09/10 07:15:57;;;;;;;5.17;3.87;;;;;;;;;;5070542;28;20573;-46
2022/09/10 07:18:23;;;;;;;5.97;3.43;;;;;;;;;;5072157;28;20203;-46
2022/09/10 07:20:49;;;;;;;4.77;3.37;;;;;;;;;;5070396;28;20241;-47
2022/09/10 07:23:17;;;;;;;5.00;3.53;;;;;;;;;;5071254;28;20199;-46
2022/09/10 07:25:44;;;;;;;6.53;3.37;;;;;;;;;;5071546;28;20330;-47
2022/09/10 07:28:12;;;;;;;5.57;3.50;;;;;;;;;;5071127;28;20203;-47
2022/09/10 07:30:38;;;;;;;5.37;3.57;;;;;;;;;;5071220;28;20272;-47
2022/09/10 07:33:04;;;;;;;4.07;2.87;;;;;;;;;;5071679;28;20203;-47
2022/09/10 07:35:31;;;;;;;4.87;3.10;;;;;;;;;;5071080;28;20214;-47
2022/09/10 07:37:57;;;;;;;4.80;3.40;;;;;;;;;;5069462;28;20283;-47
2022/09/10 07:40:24;;;;;;;4.77;3.87;;;;;;;;;;5069601;28;20730;-46
2022/09/10 07:42:52;;;;;;;6.13;4.10;;;;;;;;;;5069738;28;20184;-46
2022/09/10 07:45:18;;;;;;;4.10;3.40;;;;;;;;;;5069631;28;20277;-47
2022/09/10 07:47:44;;;;;;;5.40;3.63;;;;;;;;;;5070845;28;20199;-46
2022/09/10 07:50:10;;;;;;;5.93;3.57;;;;;;;;;;5070422;28;20714;-48
2022/09/10 07:52:36;;;;;;;3.80;3.50;;;;;;;;;;5070732;28;20669;-47
2022/09/10 07:55:02;;;;;;;3.90;3.27;;;;;;;;;;5070313;28;20288;-47
2022/09/10 07:57:30;;;;;;;4.17;2.70;;;;;;;;;;5069382;28;20603;-47
2022/09/10 07:59:59;;;;;;;2.90;2.60;;;;;;;;;;5069512;28;20628;-46
2022/09/10 08:02:25;;;;;;;5.60;2.97;;;;;;;;;;5070135;28;20639;-46
2022/09/10 08:04:52;;;;;;;6.77;2.37;;;;;;;;;;5070372;28;20205;-47
2022/09/10 08:07:18;;;;;;;5.90;2.70;;;;;;;;;;5070571;28;20258;-46
2022/09/10 08:09:44;;;;;;;3.50;2.00;;;;;;;;;;5070152;28;20233;-47
2022/09/10 08:12:10;;;;;;;5.60;2.30;;;;;;;;;;5070049;28;20312;-46
2022/09/10 08:14:39;;;;;;;3.33;2.20;;;;;;;;;;5070644;28;20743;-46
2022/09/10 08:17:06;;;;;;;4.73;2.30;;;;;;;;;;5069961;28;20199;-47
2022/09/10 08:19:35;;;;;;;4.13;2.10;;;;;;;;;;5068963;28;20599;-47
2022/09/10 08:22:02;;;;;;;2.77;2.00;;;;;;;;;;5072701;28;20297;-46
2022/09/10 08:24:29;;;;;;;3.87;2.30;;;;;;;;;;5073975;28;20285;-47
2022/09/10 08:26:55;;;;;;;4.93;2.50;;;;;;;;;;5073562;28;20561;-48
2022/09/10 08:29:22;;;;;;;4.80;2.20;;;;;;;;;;5072982;28;20226;-47
2022/09/10 08:31:48;;;;;;;6.33;2.50;;;;;;;;;;5072935;28;20270;-47
2022/09/10 08:34:15;;;;;;;6.30;2.27;;;;;;;;;;5073374;28;20282;-49
2022/09/10 08:36:41;;;;;;;3.50;2.00;;;;;;;;;;5071671;28;20218;-48
2022/09/10 08:39:07;;;;;;;7.50;3.00;;;;;;;;;;5073502;28;20202;-46
2022/09/10 08:41:37;;;;;;;3.83;2.00;;;;;;;;;;5073245;28;20196;-46
2022/09/10 08:44:06;;;;;;;3.33;2.27;;;;;;;;;;5072300;28;20202;-47
2022/09/10 08:46:34;;;;;;;4.07;2.00;;;;;;;;;;5072993;28;20195;-48
2022/09/10 08:49:04;;;;;;;3.60;2.00;;;;;;;;;;5072787;28;20294;-48
2022/09/10 08:51:34;;;;;;;3.43;1.60;;;;;;;;;;5073988;28;20214;-47
2022/09/10 08:54:03;;;;;;;4.30;2.00;;;;;;;;;;5072836;28;20539;-49
2022/09/10 08:56:30;;;;;;;4.07;2.10;;;;;;;;;;5073317;28;20727;-48
2022/09/10 08:58:58;;;;;;;5.13;2.00;;;;;;;;;;5073471;28;20191;-48
2022/09/10 09:01:27;;;;;;;5.00;2.10;;;;;;;;;;5072690;28;20242;-49
2022/09/10 09:03:56;;;;;;;3.00;1.90;;;;;;;;;;5073455;28;20200;-48
2022/09/10 09:06:24;;;;;;;2.20;1.80;;;;;;;;;;5072648;28;20995;-48
2022/09/10 09:08:51;;;;;;;2.87;1.93;;;;;;;;;;5072282;28;20282;-48
2022/09/10 09:11:21;;;;;;;3.50;1.80;;;;;;;;;;5072170;28;20211;-49
2022/09/10 09:13:56;;;;;;;4.93;1.73;;;;;;;;;;5072774;28;20214;-48
2022/09/10 09:16:29;;;;;;;2.53;1.40;;;;;;;;;;5073323;28;20207;-48
2022/09/10 09:19:00;;;;;;;2.50;1.60;;;;;;;;;;5069038;28;20229;-49
2022/09/10 09:21:29;;;;;;;2.60;1.40;;;;;;;;;;5072941;28;20744;-49
2022/09/10 09:23:57;;;;;;;5.40;1.57;;;;;;;;;;5072119;28;20306;-49
2022/09/10 09:26:26;;;;;;;2.43;1.60;;;;;;;;;;5072160;28;20256;-48
2022/09/10 09:28:54;;;;;;;3.73;1.90;;;;;;;;;;5071670;28;20248;-48
2022/09/10 09:31:23;;;;;;;3.53;1.60;;;;;;;;;;5072875;28;20201;-48
2022/09/10 09:33:50;;;;;;;2.93;1.70;;;;;;;;;;5072587;28;20285;-48
2022/09/10 09:36:18;;;;;;;2.00;1.40;;;;;;;;;;5072725;28;20617;-47
2022/09/10 09:38:45;;;;;;;2.77;1.50;;;;;;;;;;5072486;28;20225;-47
2022/09/10 09:41:16;;;;;;;2.47;1.50;;;;;;;;;;5072279;28;20191;-46
2022/09/10 09:43:48;;;;;;;2.07;1.30;;;;;;;;;;5072554;28;20196;-47
2022/09/10 09:46:16;;;;;;;1.57;1.47;;;;;;;;;;5072226;28;20199;-48
2022/09/10 09:48:42;;;;;;;3.03;1.33;;;;;;;;;;5072356;28;20207;-48
2022/09/10 09:51:12;;;;;;;1.40;1.23;;;;;;;;;;5072179;28;20293;-47
2022/09/10 09:53:39;;;;;;;2.47;1.50;;;;;;;;;;5071935;28;20196;-47
2022/09/10 09:56:06;;;;;;;2.63;1.60;;;;;;;;;;5068917;28;20711;-47
2022/09/10 09:58:35;;;;;;;2.27;1.37;;;;;;;;;;5072323;28;20245;-47
2022/09/10 10:01:13;;;;;;;3.80;1.30;;;;;;;;;;5072285;28;20598;-47
2022/09/10 10:03:47;;;;;;;2.17;1.33;;;;;;;;;;5072197;28;20669;-46
2022/09/10 10:06:14;;;;;;;1.97;1.20;;;;;;;;;;5072518;28;20197;-48
2022/09/10 10:08:42;;;;;;;2.33;1.47;;;;;;;;;;5072437;28;20222;-47
2022/09/10 10:11:08;;;;;;;2.23;1.40;;;;;;;;;;5072160;28;20246;-47
2022/09/10 10:13:37;;;;;;;2.93;1.60;;;;;;;;;;5072505;28;20203;-47
2022/09/10 10:16:13;;;;;;;2.93;1.57;;;;;;;;;;5072146;28;20707;-47
2022/09/10 10:18:41;;;;;;;4.07;1.60;;;;;;;;;;5072365;28;20286;-48
2022/09/10 10:21:15;;;;;;;1.67;1.40;;;;;;;;;;5072042;28;20195;-48
2022/09/10 10:23:41;;;;;;;6.20;4.53;;;;;;;;;;5071761;28;20191;-49
2022/09/10 10:26:21;;;;;;;1.80;1.53;;;;;;;;;;5072020;28;20195;-49
2022/09/10 10:28:50;;;;;;;3.37;1.60;;;;;;;;;;5071981;28;20660;-49
2022/09/10 10:31:16;;;;;;;2.43;1.60;;;;;;;;;;5071744;28;20249;-49
2022/09/10 10:33:49;;;;;;;2.60;1.40;;;;;;;;;;5071928;28;20218;-49
2022/09/10 10:36:19;;;;;;;4.10;1.27;;;;;;;;;;5071250;28;20711;-47
2022/09/10 10:38:48;;;;;;;2.20;1.40;;;;;;;;;;5071346;28;20807;-49
2022/09/10 10:41:35;;;;;;;1.30;1.20;;;;;;;;;;5071355;28;20604;-48
2022/09/10 10:44:16;;;;;;;3.57;1.40;;;;;;;;;;5067161;28;20195;-49
2022/09/10 10:46:47;;;;;;;3.53;1.57;;;;;;;;;;5068741;28;20203;-48
2022/09/10 10:49:18;;;;;;;3.47;1.57;;;;;;;;;;5070415;28;20199;-48
2022/09/10 10:51:47;;;;;;;2.33;1.43;;;;;;;;;;5071209;28;20787;-48
2022/09/10 10:54:24;;;;;;;2.23;1.60;;;;;;;;;;5071063;28;20585;-47
2022/09/10 10:56:56;;;;;;;2.27;1.63;;;;;;;;;;5070898;28;20257;-47
2022/09/10 10:59:27;;;;;;;2.60;1.47;;;;;;;;;;5070927;28;20191;-47
2022/09/10 11:01:55;;;;;;;2.57;1.57;;;;;;;;;;5070570;28;20207;-48
2022/09/10 11:04:24;;;;;;;2.93;1.40;;;;;;;;;;5070756;28;20243;-49
2022/09/10 11:06:54;;;;;;;6.47;5.80;;;;;;;;;;5070292;28;20870;-48
2022/09/10 11:09:22;;;;;;;2.03;1.30;;;;;;;;;;5070768;28;20645;-54
2022/09/10 11:11:52;;;;;;;2.53;1.50;;;;;;;;;;5070720;28;20533;-47
2022/09/10 11:14:21;;;;;;;2.47;1.60;;;;;;;;;;5069986;28;20207;-47
2022/09/10 11:16:53;;;;;;;2.10;1.43;;;;;;;;;;5069278;28;20197;-47
2022/09/10 11:19:21;;;;;;;3.73;1.50;;;;;;;;;;5070479;28;20208;-48
2022/09/10 11:21:50;;;;;;;2.47;1.60;;;;;;;;;;5069791;28;20223;-48
2022/09/10 11:24:18;;;;;;;2.20;1.47;;;;;;;;;;5070855;28;20254;-47
2022/09/10 11:26:47;;;;;;;2.27;1.40;;;;;;;;;;5070893;28;20290;-48
2022/09/10 11:29:21;;;;;;;2.77;1.40;;;;;;;;;;5070800;28;20211;-48
2022/09/10 11:31:49;;;;;;;1.53;1.43;;;;;;;;;;5070833;28;20783;-48
2022/09/10 11:34:19;;;;;;;2.53;1.50;;;;;;;;;;5070866;28;20656;-48
2022/09/10 11:36:48;;;;;;;3.00;1.40;;;;;;;;;;5070897;28;20200;-48
2022/09/10 11:39:18;;;;;;;4.00;3.60;;;;;;;;;;5070194;28;20197;-48
2022/09/10 11:41:46;;;;;;;3.27;2.20;;;;;;;;;;5069223;28;20251;-48
2022/09/10 11:44:16;;;;;;;1.37;1.23;;;;;;;;;;5070660;28;20199;-47
2022/09/10 11:46:44;;;;;;;2.07;1.30;;;;;;;;;;5070411;28;20204;-48
2022/09/10 11:49:14;;;;;;;1.50;1.37;;;;;;;;;;5070762;28;20202;-48
2022/09/10 11:51:43;;;;;;;2.47;1.47;;;;;;;;;;5069936;28;20199;-48
2022/09/10 11:54:12;;;;;;;2.60;1.30;;;;;;;;;;5070187;28;20849;-48
2022/09/10 11:56:45;;;;;;;2.77;1.67;;;;;;;;;;5074343;28;20203;-48
2022/09/10 11:59:16;;;;;;;1.33;1.20;;;;;;;;;;5074745;28;20583;-48
2022/09/10 12:01:50;;;;;;;2.03;1.40;;;;;;;;;;5074538;28;20236;-48
2022/09/10 12:04:29;;;;;;;1.50;1.37;;;;;;;;;;5073773;28;20282;-49
2022/09/10 12:07:01;;;;;;;3.10;1.70;;;;;;;;;;5074299;28;20232;-48
2022/09/10 12:09:30;;;;;;;1.70;1.50;;;;;;;;;;5074187;28;20223;-47
2022/09/10 12:12:00;;;;;;;2.33;1.30;;;;;;;;;;5073447;28;20207;-48
2022/09/10 12:14:26;;;;;;;2.97;1.40;;;;;;;;;;5065957;28;20199;-47
2022/09/10 12:16:56;;;;;;;3.00;1.73;;;;;;;;;;5073879;28;20199;-47
2022/09/10 12:19:25;;;;;;;3.33;1.80;;;;;;;;;;5073625;28;20187;-48
2022/09/10 12:21:53;;;;;;;2.30;1.30;;;;;;;;;;5074004;28;20195;-47
2022/09/10 12:24:26;;;;;;;1.43;1.30;;;;;;;;;;5073653;28;20204;-47
2022/09/10 12:26:53;;;;;;;2.40;1.30;;;;;;;;;;5073365;28;20199;-47
2022/09/10 12:29:28;;;;;;;1.57;1.20;;;;;;;;;;5073606;28;20257;-47
2022/09/10 12:32:13;;;;;;;2.47;1.30;;;;;;;;;;5073645;28;20676;-47
2022/09/10 12:34:39;;;;;;;1.67;1.57;;;;;;;;;;5073992;28;20199;-47
2022/09/10 12:37:14;;;;;;;1.97;1.37;;;;;;;;;;5073769;28;20199;-48
2022/09/10 12:39:42;;;;;;;1.37;1.27;;;;;;;;;;5073318;28;20206;-48
2022/09/10 12:42:23;;;;;;;2.60;1.30;;;;;;;;;;5073447;28;20200;-48
2022/09/10 12:44:49;;;;;;;1.93;1.37;;;;;;;;;;5073764;28;20253;-48
2022/09/10 12:47:32;;;;;;;1.93;1.40;;;;;;;;;;5073294;28;20195;-48
2022/09/10 12:49:59;;;;;;;1.77;1.47;;;;;;;;;;5073468;28;20698;-48
2022/09/10 12:52:34;;;;;;;2.73;1.50;;;;;;;;;;5073737;28;20235;-47
2022/09/10 12:55:04;;;;;;;1.87;1.37;;;;;;;;;;5072864;28;20961;-48
2022/09/10 12:57:37;;;;;;;2.30;1.90;;;;;;;;;;5073112;28;20590;-49
2022/09/10 13:00:21;;;;;;;2.43;1.67;;;;;;;;;;5069268;28;20348;-47
2022/09/10 13:02:50;;;;;;;2.43;1.50;;;;;;;;;;5073113;28;20274;-48
2022/09/10 13:05:24;;;;;;;2.50;1.30;;;;;;;;;;5072776;28;20215;-48
2022/09/10 13:07:56;;;;;;;2.77;1.67;;;;;;;;;;5073236;28;20234;-48
2022/09/10 13:10:36;;;;;;;3.47;1.50;;;;;;;;;;5073388;28;20670;-48
2022/09/10 13:13:04;;;;;;;3.03;1.60;;;;;;;;;;5071186;28;20203;-47
2022/09/10 13:15:34;;;;;;;5.27;3.00;;;;;;;;;;5070788;28;20277;-48
2022/09/10 13:18:24;;;;;;;2.60;1.47;;;;;;;;;;5071808;28;20215;-48
2022/09/10 13:20:50;;;;;;;1.80;1.57;;;;;;;;;;5056194;28;20196;-48
2022/09/10 13:23:20;;;;;;;1.87;1.40;;;;;;;;;;5070741;28;20613;-49
2022/09/10 13:25:48;;;;;;;1.30;1.20;;;;;;;;;;5072689;28;20659;-49
2022/09/10 13:28:32;;;;;;;2.37;1.40;;;;;;;;;;5073327;28;20615;-49
2022/09/10 13:31:00;;;;;;;1.90;1.30;;;;;;;;;;5073064;28;20593;-49
2022/09/10 13:33:28;;;;;;;2.40;1.50;;;;;;;;;;5073323;28;20207;-49
2022/09/10 13:36:05;;;;;;;2.93;1.70;;;;;;;;;;5073032;28;20294;-49
2022/09/10 13:38:48;;;;;;;2.73;1.30;;;;;;;;;;5073230;28;20320;-49
2022/09/10 13:41:35;;;;;;;3.17;1.50;;;;;;;;;;5072988;28;20192;-49
2022/09/10 13:44:14;;;;;;;2.00;1.40;;;;;;;;;;5067676;28;20202;-49
2022/09/10 13:46:42;;;;;;;1.87;1.50;;;;;;;;;;5072875;28;20199;-49
2022/09/10 13:49:12;;;;;;;1.70;1.40;;;;;;;;;;5072831;28;20549;-49
2022/09/10 13:51:45;;;;;;;2.23;1.43;;;;;;;;;;5072827;28;20223;-47
2022/09/10 13:54:17;;;;;;;2.07;1.50;;;;;;;;;;5072668;28;20204;-48
2022/09/10 13:56:45;;;;;;;3.53;1.70;;;;;;;;;;5072903;28;20200;-47
2022/09/10 13:59:18;;;;;;;4.57;1.60;;;;;;;;;;5072558;28;20205;-47
2022/09/10 14:01:48;;;;;;;1.73;1.27;;;;;;;;;;5072642;28;20250;-49
2022/09/10 14:04:22;;;;;;;3.57;1.70;;;;;;;;;;5072459;28;20192;-49
2022/09/10 14:06:48;;;;;;;2.70;1.60;;;;;;;;;;5072592;28;20305;-49
2022/09/10 14:09:14;;;;;;;2.20;1.60;;;;;;;;;;5072306;28;20278;-48
2022/09/10 14:11:41;;;;;;;2.80;1.60;;;;;;;;;;5072287;28;20672;-48
2022/09/10 14:14:08;;;;;;;3.43;1.73;;;;;;;;;;5072321;28;20612;-49
2022/09/10 14:16:37;;;;;;;2.53;1.50;;;;;;;;;;5072256;28;20195;-48
2022/09/10 14:19:05;;;;;;;3.27;1.40;;;;;;;;;;5071486;28;20699;-49
2022/09/10 14:21:31;;;;;;;2.73;1.50;;;;;;;;;;5072225;28;20186;-49
2022/09/10 14:23:58;;;;;;;1.40;1.30;;;;;;;;;;5072191;28;20191;-48
2022/09/10 14:26:25;;;;;;;1.77;1.40;;;;;;;;;;5072155;28;20709;-47
2022/09/10 14:28:53;;;;;;;2.70;1.57;;;;;;;;;;5072008;28;20227;-47
2022/09/10 14:31:20;;;;;;;1.97;1.60;;;;;;;;;;5071746;28;20268;-48
2022/09/10 14:33:47;;;;;;;2.43;1.37;;;;;;;;;;5071877;28;20205;-48
2022/09/10 14:36:15;;;;;;;2.13;1.50;;;;;;;;;;5071828;28;20203;-48
2022/09/10 14:38:41;;;;;;;2.77;1.70;;;;;;;;;;5072101;28;20200;-47
2022/09/10 14:41:16;;;;;;;2.40;1.60;;;;;;;;;;5071840;28;20645;-48
2022/09/10 14:43:42;;;;;;;2.50;1.57;;;;;;;;;;5071894;28;20200;-47
2022/09/10 14:46:09;;;;;;;1.43;1.20;;;;;;;;;;5071597;28;20197;-48
2022/09/10 14:48:36;;;;;;;2.60;1.20;;;;;;;;;;5071796;28;20196;-48
2022/09/10 14:51:11;;;;;;;2.00;1.20;;;;;;;;;;5071599;28;20227;-47